Lyons, Texas
Current Conditions -  °F | °C
As of 12:10 AM on Wednesday 22 Oct 2014 (Local Time) from KRWV Reporting Station
Clear Clear  
Wind Chill: 63°   Ceiling: Unl
Heat Index: 63°   Visibility: 10mi
Dew Point: 61°   Wind: 0mph
Humidity: 94%   Direction: NA
Pressure: 30.08"   Gusts: NA
Location:  30.39°N, 96.56°W
Report Text: KRWV 220510Z AUTO 00000KT 10SM CLR 17/16 A3008 RMK AO2
Loading
Personal Weather Stations






























Interactive Weather Map
Tropical Storm Tracking
New forecast layout! Learn more

10-Day Weather Forecast

Advertisements
Track Severe Weather on mobile